Time;durP1;ratioP1;P1;durP2;ratioP2;P2;SDS_P1;SDS_P2;PMS_P1;PMS_P2;Temp;Humidity;BMP_temperature;BMP_pressure;BME280_temperature;BME280_humidity;BME280_pressure;Samples;Min_cycle;Max_cycle;Signal;HPM_P1;HPM_P2
2023/08/26 05:00:16;;;;;;;14.25;6.85;;;;;;;;;;6001047;23;20567;31
2023/08/26 05:02:42;;;;;;;16.10;8.03;;;;;;;;;;4914902;29;20635;-70
2023/08/26 05:05:08;;;;;;;11.83;7.47;;;;;;;;;;4918101;29;20466;-71
2023/08/26 05:07:34;;;;;;;15.07;8.80;;;;;;;;;;4917306;29;20972;-71
2023/08/26 05:10:01;;;;;;;17.53;9.27;;;;;;;;;;4916578;29;20897;-70
2023/08/26 05:12:27;;;;;;;13.37;8.27;;;;;;;;;;4917044;29;20426;-69
2023/08/26 05:14:53;;;;;;;16.60;8.30;;;;;;;;;;4950211;23;20505;-71
2023/08/26 05:17:18;;;;;;;10.00;7.17;;;;;;;;;;4934807;29;20428;-71
2023/08/26 05:19:44;;;;;;;12.50;8.77;;;;;;;;;;4934572;29;20418;-71
2023/08/26 05:22:10;;;;;;;11.80;7.77;;;;;;;;;;4932530;29;20469;-71
2023/08/26 05:24:36;;;;;;;17.30;8.90;;;;;;;;;;4922449;29;21034;-71
2023/08/26 05:27:03;;;;;;;13.97;8.43;;;;;;;;;;4914615;29;20839;-71
2023/08/26 05:29:29;;;;;;;16.33;9.43;;;;;;;;;;4915823;29;20414;-72
2023/08/26 05:31:55;;;;;;;15.77;8.03;;;;;;;;;;4915018;29;20413;-71
2023/08/26 05:34:20;;;;;;;14.57;7.10;;;;;;;;;;4925579;29;20966;-71
2023/08/26 05:36:46;;;;;;;15.10;8.33;;;;;;;;;;4937495;29;20422;-71
2023/08/26 05:39:12;;;;;;;16.00;8.13;;;;;;;;;;4938298;29;20424;-71
2023/08/26 05:41:38;;;;;;;18.87;7.93;;;;;;;;;;4938786;29;20414;-71
2023/08/26 05:44:05;;;;;;;13.13;7.10;;;;;;;;;;4938341;29;20485;-71
2023/08/26 05:46:31;;;;;;;14.57;7.30;;;;;;;;;;4938022;29;20429;-71
2023/08/26 05:48:57;;;;;;;14.53;7.10;;;;;;;;;;4938086;29;20515;-72
2023/08/26 05:51:23;;;;;;;14.37;7.40;;;;;;;;;;4938471;29;20414;-71
2023/08/26 05:53:49;;;;;;;11.60;7.40;;;;;;;;;;4938080;29;20461;-71
2023/08/26 05:56:15;;;;;;;14.33;7.20;;;;;;;;;;4937966;29;20425;-71
2023/08/26 05:58:41;;;;;;;15.53;7.33;;;;;;;;;;4937899;29;20449;-71
2023/08/26 06:01:07;;;;;;;13.80;7.03;;;;;;;;;;4938065;29;20445;-71
2023/08/26 06:03:33;;;;;;;11.70;6.90;;;;;;;;;;4937950;29;20428;-71
2023/08/26 06:05:59;;;;;;;10.63;5.60;;;;;;;;;;4937654;29;20552;-72
2023/08/26 06:08:25;;;;;;;11.37;5.47;;;;;;;;;;4937698;29;20405;-71
2023/08/26 06:10:55;;;;;;;9.93;5.07;;;;;;;;;;4937772;29;20467;-72
2023/08/26 06:13:21;;;;;;;12.20;6.10;;;;;;;;;;4937948;29;20432;-71
2023/08/26 06:15:53;;;;;;;8.57;5.30;;;;;;;;;;4937462;29;20970;-71
2023/08/26 06:18:19;;;;;;;9.87;5.27;;;;;;;;;;4937668;29;20801;-71
2023/08/26 06:20:45;;;;;;;11.30;4.80;;;;;;;;;;4937884;29;20509;-71
2023/08/26 06:23:11;;;;;;;13.70;5.37;;;;;;;;;;4936509;29;20441;-71
2023/08/26 06:25:36;;;;;;;6.80;4.80;;;;;;;;;;4937227;29;20457;-71
2023/08/26 06:28:03;;;;;;;8.07;4.97;;;;;;;;;;4936080;29;20433;-71
2023/08/26 06:30:28;;;;;;;12.70;5.37;;;;;;;;;;4937451;29;20414;-71
2023/08/26 06:32:54;;;;;;;16.33;5.50;;;;;;;;;;4937372;29;20420;-71
2023/08/26 06:35:26;;;;;;;8.60;5.53;;;;;;;;;;4937390;29;20501;-71
2023/08/26 06:37:52;;;;;;;10.53;5.30;;;;;;;;;;4937111;29;20469;-71
2023/08/26 06:40:18;;;;;;;13.00;5.87;;;;;;;;;;4937365;29;20417;-71
2023/08/26 06:42:43;;;;;;;13.07;5.10;;;;;;;;;;4937343;29;20497;-71
2023/08/26 06:45:09;;;;;;;6.90;4.90;;;;;;;;;;4937139;29;20836;-72
2023/08/26 06:47:35;;;;;;;11.83;5.47;;;;;;;;;;4935420;29;20468;-71
2023/08/26 06:50:02;;;;;;;13.80;5.50;;;;;;;;;;4936834;29;20429;-72
2023/08/26 06:52:29;;;;;;;8.23;5.07;;;;;;;;;;4936914;29;20803;-71
2023/08/26 06:54:55;;;;;;;8.47;5.40;;;;;;;;;;4936754;29;20445;-71
2023/08/26 06:57:21;;;;;;;6.90;4.67;;;;;;;;;;4936762;29;20433;-71
2023/08/26 06:59:47;;;;;;;15.83;6.60;;;;;;;;;;4936603;29;20418;-71
2023/08/26 07:02:15;;;;;;;10.77;6.37;;;;;;;;;;4936798;29;20569;-71
2023/08/26 07:04:41;;;;;;;13.50;5.30;;;;;;;;;;4936719;29;20465;-71
2023/08/26 07:07:07;;;;;;;12.67;6.90;;;;;;;;;;4936569;29;20481;-71
2023/08/26 07:09:33;;;;;;;12.67;6.03;;;;;;;;;;4936747;29;20420;-70
2023/08/26 07:11:59;;;;;;;9.20;5.30;;;;;;;;;;4936552;29;20800;-70
2023/08/26 07:14:25;;;;;;;20.30;5.97;;;;;;;;;;4936339;29;20479;-70
2023/08/26 07:16:51;;;;;;;11.80;6.87;;;;;;;;;;4936328;29;20500;-70
2023/08/26 07:19:17;;;;;;;8.87;5.27;;;;;;;;;;4936724;29;20409;-70
2023/08/26 07:21:43;;;;;;;13.33;6.00;;;;;;;;;;4934556;29;20981;-71
2023/08/26 07:24:09;;;;;;;12.63;6.20;;;;;;;;;;4935396;29;20516;-71
2023/08/26 07:26:36;;;;;;;12.10;6.30;;;;;;;;;;4919899;29;20879;-71
2023/08/26 07:29:02;;;;;;;13.93;7.20;;;;;;;;;;4916080;29;20968;-71
2023/08/26 07:31:28;;;;;;;10.50;6.10;;;;;;;;;;4921170;29;20438;-71
2023/08/26 07:33:54;;;;;;;9.63;6.40;;;;;;;;;;4935089;29;20433;-71
2023/08/26 07:36:20;;;;;;;12.70;6.30;;;;;;;;;;4936215;29;20712;-71
2023/08/26 07:38:46;;;;;;;13.90;6.10;;;;;;;;;;4936035;29;20425;-71
2023/08/26 07:41:12;;;;;;;10.60;6.03;;;;;;;;;;4934581;29;20432;-71
2023/08/26 07:43:38;;;;;;;10.60;5.20;;;;;;;;;;4935923;29;20427;-71
2023/08/26 07:46:04;;;;;;;11.60;5.73;;;;;;;;;;4936136;29;20457;-72
2023/08/26 07:48:30;;;;;;;9.93;5.37;;;;;;;;;;4934933;29;20430;-73
2023/08/26 07:50:56;;;;;;;9.03;4.63;;;;;;;;;;4935728;29;20778;-72
2023/08/26 07:53:22;;;;;;;11.83;5.40;;;;;;;;;;4935722;29;20425;-72
2023/08/26 07:55:48;;;;;;;12.80;5.17;;;;;;;;;;4935497;29;20855;-71
2023/08/26 07:58:14;;;;;;;12.97;5.40;;;;;;;;;;4935663;29;20418;-71
2023/08/26 08:00:40;;;;;;;7.97;5.10;;;;;;;;;;4936474;29;20410;-71
2023/08/26 08:03:06;;;;;;;9.30;4.10;;;;;;;;;;4935453;29;20800;-71
2023/08/26 08:05:32;;;;;;;10.30;5.30;;;;;;;;;;4935433;29;20461;-71
2023/08/26 08:07:58;;;;;;;10.70;4.40;;;;;;;;;;4935583;29;20424;-71
2023/08/26 08:10:24;;;;;;;7.73;4.20;;;;;;;;;;4935354;29;20413;-72
2023/08/26 08:12:50;;;;;;;15.50;4.63;;;;;;;;;;4935281;29;20430;-72
2023/08/26 08:15:16;;;;;;;7.40;4.60;;;;;;;;;;4935255;29;20508;-67
2023/08/26 08:17:42;;;;;;;8.73;5.20;;;;;;;;;;4935305;29;20779;-67
2023/08/26 08:20:08;;;;;;;9.23;4.37;;;;;;;;;;4935082;29;20416;-67
2023/08/26 08:22:39;;;;;;;10.30;5.13;;;;;;;;;;4935113;29;20431;-67
2023/08/26 08:25:05;;;;;;;11.87;5.33;;;;;;;;;;4934856;29;20556;-67
2023/08/26 08:27:31;;;;;;;7.47;4.90;;;;;;;;;;4935333;29;20469;-67
2023/08/26 08:29:58;;;;;;;7.27;3.93;;;;;;;;;;4934891;29;20449;-67
2023/08/26 08:32:24;;;;;;;11.30;4.60;;;;;;;;;;4930570;29;20445;-67
2023/08/26 08:34:50;;;;;;;15.73;5.10;;;;;;;;;;4933981;29;20966;-67
2023/08/26 08:37:16;;;;;;;13.57;5.33;;;;;;;;;;4934586;29;20418;-67
2023/08/26 08:39:42;;;;;;;5.97;3.80;;;;;;;;;;4934556;29;20509;-67
2023/08/26 08:42:14;;;;;;;8.30;4.97;;;;;;;;;;4935010;29;20524;-68
2023/08/26 08:44:41;;;;;;;11.67;5.33;;;;;;;;;;4934397;29;20605;-66
2023/08/26 08:47:08;;;;;;;6.47;4.77;;;;;;;;;;4934891;29;20928;-67
2023/08/26 08:49:34;;;;;;;9.53;5.20;;;;;;;;;;4934709;29;20449;-67
2023/08/26 08:52:03;;;;;;;11.17;5.20;;;;;;;;;;4934919;29;20421;-66
2023/08/26 08:54:30;;;;;;;7.90;5.33;;;;;;;;;;4934487;29;20552;-67
2023/08/26 08:56:56;;;;;;;6.43;4.10;;;;;;;;;;4932782;29;20524;-67
2023/08/26 08:59:23;;;;;;;9.50;5.60;;;;;;;;;;4934918;29;20417;-67
2023/08/26 09:01:49;;;;;;;11.00;4.90;;;;;;;;;;4934841;29;20481;-67
2023/08/26 09:04:15;;;;;;;5.53;4.27;;;;;;;;;;4934334;29;20441;-67
2023/08/26 09:06:41;;;;;;;10.07;4.20;;;;;;;;;;4934334;29;20878;-67
2023/08/26 09:09:10;;;;;;;10.10;4.83;;;;;;;;;;4934615;29;20413;-67
2023/08/26 09:11:37;;;;;;;10.57;4.63;;;;;;;;;;4933965;29;20410;-68
2023/08/26 09:14:04;;;;;;;9.17;4.70;;;;;;;;;;4929305;29;20465;-67
2023/08/26 09:16:34;;;;;;;7.73;4.30;;;;;;;;;;4923318;29;20426;-67
2023/08/26 09:19:00;;;;;;;6.47;4.53;;;;;;;;;;4915417;29;20787;-67
2023/08/26 09:21:26;;;;;;;9.50;4.80;;;;;;;;;;4926511;29;20433;-67
2023/08/26 09:23:52;;;;;;;6.43;4.40;;;;;;;;;;4934279;29;20881;-67
2023/08/26 09:26:18;;;;;;;9.13;4.83;;;;;;;;;;4934758;29;20471;-66
2023/08/26 09:28:47;;;;;;;10.90;6.00;;;;;;;;;;4934161;29;20899;-66
2023/08/26 09:31:13;;;;;;;16.63;6.07;;;;;;;;;;4933613;29;20426;-66
2023/08/26 09:33:39;;;;;;;7.47;5.10;;;;;;;;;;4934496;29;20449;-66
2023/08/26 09:36:06;;;;;;;8.40;5.90;;;;;;;;;;4934517;29;20449;-66
2023/08/26 09:38:41;;;;;;;10.27;5.23;;;;;;;;;;4934243;29;20421;-66
2023/08/26 09:41:07;;;;;;;12.33;5.77;;;;;;;;;;4926982;29;20517;-66
2023/08/26 09:43:33;;;;;;;10.30;4.93;;;;;;;;;;4933775;29;20517;-66
2023/08/26 09:45:59;;;;;;;12.20;5.50;;;;;;;;;;4934571;29;20555;-65
2023/08/26 09:48:25;;;;;;;10.47;6.10;;;;;;;;;;4934000;29;20505;-66
2023/08/26 09:50:51;;;;;;;14.23;7.27;;;;;;;;;;4933434;29;20716;-70
2023/08/26 09:53:32;;;;;;;9.40;5.70;;;;;;;;;;4933874;29;20432;-66
2023/08/26 09:55:58;;;;;;;12.90;6.37;;;;;;;;;;4934331;29;20442;-69
2023/08/26 09:58:25;;;;;;;10.50;6.20;;;;;;;;;;4934401;29;20962;-68
2023/08/26 10:00:53;;;;;;;12.67;6.17;;;;;;;;;;4930141;29;20437;-69
2023/08/26 10:03:21;;;;;;;14.23;6.73;;;;;;;;;;4922760;29;20804;-68
2023/08/26 10:05:47;;;;;;;11.00;5.30;;;;;;;;;;4926273;29;20461;-69
2023/08/26 10:08:13;;;;;;;17.93;5.63;;;;;;;;;;4933950;29;20417;-68
2023/08/26 10:10:55;;;;;;;7.37;5.40;;;;;;;;;;4934034;29;20421;-69
2023/08/26 10:13:23;;;;;;;8.20;5.10;;;;;;;;;;4921403;29;20429;-68
2023/08/26 10:15:51;;;;;;;20.27;5.90;;;;;;;;;;4933586;29;20556;-70
2023/08/26 10:18:24;;;;;;;20.30;5.80;;;;;;;;;;4933404;29;20437;-70
2023/08/26 10:20:50;;;;;;;10.20;4.67;;;;;;;;;;4933779;29;20408;-70
2023/08/26 10:23:17;;;;;;;26.47;7.00;;;;;;;;;;4936757;29;20442;-69
2023/08/26 10:25:43;;;;;;;10.20;5.10;;;;;;;;;;4929293;29;20473;-69
2023/08/26 10:28:11;;;;;;;9.40;5.57;;;;;;;;;;4937122;29;20417;-69
2023/08/26 10:30:37;;;;;;;11.30;4.87;;;;;;;;;;4937285;29;20912;-69
2023/08/26 10:33:05;;;;;;;13.73;5.40;;;;;;;;;;4936876;29;20433;-69
2023/08/26 10:35:31;;;;;;;6.77;4.23;;;;;;;;;;4936848;29;20441;-69
2023/08/26 10:38:10;;;;;;;8.90;5.30;;;;;;;;;;4936782;29;20578;-69
2023/08/26 10:40:36;;;;;;;11.10;5.83;;;;;;;;;;4937285;29;20782;-69
2023/08/26 10:43:03;;;;;;;12.83;4.73;;;;;;;;;;4936648;29;20654;-69
2023/08/26 10:45:29;;;;;;;7.73;5.30;;;;;;;;;;4929012;29;20461;-69
2023/08/26 10:47:55;;;;;;;9.80;5.47;;;;;;;;;;4922907;29;20505;-69
2023/08/26 10:50:22;;;;;;;15.83;5.50;;;;;;;;;;4923161;29;20421;-69
2023/08/26 10:52:53;;;;;;;11.07;6.27;;;;;;;;;;4932774;29;20433;-68
2023/08/26 10:55:19;;;;;;;9.97;5.57;;;;;;;;;;4937175;29;20504;-69
2023/08/26 10:58:17;;;;;;;9.40;5.20;;;;;;;;;;4936884;29;20453;-69
2023/08/26 11:00:47;;;;;;;12.10;5.20;;;;;;;;;;4929163;29;20429;-68
2023/08/26 11:03:15;;;;;;;7.30;4.77;;;;;;;;;;4921734;29;20458;-69
2023/08/26 11:05:43;;;;;;;10.17;5.20;;;;;;;;;;4928627;29;20975;-68
2023/08/26 11:08:09;;;;;;;12.03;5.37;;;;;;;;;;4936503;29;20783;-69
2023/08/26 11:10:40;;;;;;;11.30;5.60;;;;;;;;;;4936508;29;20410;-69
2023/08/26 11:13:07;;;;;;;9.97;5.57;;;;;;;;;;4935840;29;20448;-69
2023/08/26 11:15:36;;;;;;;13.37;5.07;;;;;;;;;;4972431;23;20519;-75
2023/08/26 11:18:02;;;;;;;10.20;5.90;;;;;;;;;;4955608;29;20405;-77
2023/08/26 11:20:28;;;;;;;13.60;4.90;;;;;;;;;;4956299;28;20401;-75
2023/08/26 11:22:55;;;;;;;9.47;5.37;;;;;;;;;;4955660;29;20732;-77
2023/08/26 11:25:21;;;;;;;4.97;4.40;;;;;;;;;;4947374;29;20917;-76
2023/08/26 11:27:47;;;;;;;16.50;6.23;;;;;;;;;;4955853;29;20420;-76
2023/08/26 11:30:13;;;;;;;14.80;5.10;;;;;;;;;;4955857;28;20507;-76
2023/08/26 11:32:40;;;;;;;11.03;5.00;;;;;;;;;;4955750;28;20405;-76
2023/08/26 11:35:07;;;;;;;9.87;5.60;;;;;;;;;;4955402;29;20532;-76
2023/08/26 11:37:34;;;;;;;9.63;4.60;;;;;;;;;;4956481;29;20424;-76
2023/08/26 11:40:01;;;;;;;13.70;5.13;;;;;;;;;;4955567;29;20420;-77
2023/08/26 11:42:27;;;;;;;6.30;4.57;;;;;;;;;;4955617;29;20413;-77
2023/08/26 11:44:53;;;;;;;14.60;5.63;;;;;;;;;;4954734;29;20483;-77
2023/08/26 11:47:20;;;;;;;10.20;4.60;;;;;;;;;;4955409;28;20441;-77
2023/08/26 11:49:46;;;;;;;9.03;4.90;;;;;;;;;;4953907;29;20420;-78
2023/08/26 11:52:12;;;;;;;9.23;5.23;;;;;;;;;;4955306;29;20910;-76
2023/08/26 11:54:38;;;;;;;10.63;5.70;;;;;;;;;;4954959;28;20822;-77
2023/08/26 11:57:04;;;;;;;10.57;5.40;;;;;;;;;;4955101;29;20409;-76
2023/08/26 11:59:40;;;;;;;13.37;5.20;;;;;;;;;;4956534;29;20865;-78
2023/08/26 12:02:22;;;;;;;11.23;5.50;;;;;;;;;;4954636;29;20432;-78
2023/08/26 12:04:57;;;;;;;7.70;5.20;;;;;;;;;;4955186;29;21020;-79
2023/08/26 12:07:24;;;;;;;11.70;5.10;;;;;;;;;;4954637;29;20432;-78
2023/08/26 12:09:50;;;;;;;9.97;5.67;;;;;;;;;;4956278;28;20875;-80
2023/08/26 12:12:22;;;;;;;13.93;5.70;;;;;;;;;;4958136;28;20507;-79
2023/08/26 12:14:49;;;;;;;13.37;6.60;;;;;;;;;;4956047;29;20471;-78
2023/08/26 12:17:15;;;;;;;7.50;5.27;;;;;;;;;;4956456;29;20412;-78
2023/08/26 12:19:42;;;;;;;8.87;5.90;;;;;;;;;;4956183;29;20448;-78
2023/08/26 12:22:08;;;;;;;11.47;6.10;;;;;;;;;;4955413;29;20428;-79
2023/08/26 12:24:38;;;;;;;10.60;6.03;;;;;;;;;;4956106;29;20465;-77
2023/08/26 12:27:08;;;;;;;10.70;5.70;;;;;;;;;;4955119;29;20507;-76
2023/08/26 12:29:34;;;;;;;14.03;7.13;;;;;;;;;;4954385;28;20405;-76
2023/08/26 12:32:00;;;;;;;13.30;7.80;;;;;;;;;;4953521;29;20429;-76
2023/08/26 12:34:26;;;;;;;10.90;7.70;;;;;;;;;;4953301;28;20444;-77
2023/08/26 12:36:52;;;;;;;13.13;6.73;;;;;;;;;;4954644;29;20416;-76
2023/08/26 12:39:18;;;;;;;15.87;8.40;;;;;;;;;;4954447;29;20455;-76
2023/08/26 12:41:44;;;;;;;14.50;8.20;;;;;;;;;;4954224;29;20480;-76
2023/08/26 12:44:10;;;;;;;14.17;7.60;;;;;;;;;;4953009;28;20950;-75
2023/08/26 12:46:36;;;;;;;16.30;8.30;;;;;;;;;;4953625;29;20469;-77
2023/08/26 12:49:02;;;;;;;12.60;7.40;;;;;;;;;;4954257;28;20409;-77
2023/08/26 12:51:28;;;;;;;11.60;7.23;;;;;;;;;;4954100;29;20815;-76
2023/08/26 12:53:54;;;;;;;17.43;8.40;;;;;;;;;;4953953;28;20452;-76
2023/08/26 12:56:21;;;;;;;13.47;8.20;;;;;;;;;;4954385;28;20459;-72
2023/08/26 12:58:49;;;;;;;14.90;7.90;;;;;;;;;;4953744;28;20818;-72
2023/08/26 13:01:15;;;;;;;15.17;7.40;;;;;;;;;;4953525;28;20432;-72
2023/08/26 13:03:41;;;;;;;13.93;7.67;;;;;;;;;;4953979;29;20821;-72
2023/08/26 13:06:07;;;;;;;10.30;6.70;;;;;;;;;;4954680;28;20478;-73
2023/08/26 13:08:33;;;;;;;13.03;8.00;;;;;;;;;;4953462;29;20413;-72
2023/08/26 13:11:00;;;;;;;11.87;8.13;;;;;;;;;;4953729;29;20417;-72
2023/08/26 13:13:26;;;;;;;11.83;8.03;;;;;;;;;;4954405;28;20428;-73
2023/08/26 13:15:52;;;;;;;15.30;8.37;;;;;;;;;;4952980;29;20467;-73
2023/08/26 13:18:18;;;;;;;13.17;7.80;;;;;;;;;;4953909;29;20910;-72
2023/08/26 13:20:44;;;;;;;17.20;7.93;;;;;;;;;;4954236;29;20420;-73
2023/08/26 13:23:10;;;;;;;13.50;8.23;;;;;;;;;;4953545;29;20499;-73
2023/08/26 13:25:36;;;;;;;11.30;7.10;;;;;;;;;;4953783;29;20880;-73
2023/08/26 13:28:03;;;;;;;11.63;6.60;;;;;;;;;;4952533;29;20516;-73
2023/08/26 13:30:29;;;;;;;15.63;6.27;;;;;;;;;;4953581;29;20425;-73
2023/08/26 13:32:55;;;;;;;12.10;6.63;;;;;;;;;;4954160;29;20431;-73
2023/08/26 13:35:21;;;;;;;13.33;6.10;;;;;;;;;;4953882;29;20437;-72
2023/08/26 13:37:47;;;;;;;12.10;6.53;;;;;;;;;;4953770;29;20428;-72
2023/08/26 13:40:13;;;;;;;15.20;7.30;;;;;;;;;;4953368;29;20467;-72
2023/08/26 13:42:39;;;;;;;19.20;7.97;;;;;;;;;;4953597;29;20436;-72
2023/08/26 13:45:05;;;;;;;19.03;7.93;;;;;;;;;;4953908;29;20465;-73
2023/08/26 13:47:31;;;;;;;11.07;8.20;;;;;;;;;;4962026;29;20405;-72
2023/08/26 13:49:57;;;;;;;11.10;7.43;;;;;;;;;;4975966;29;20432;-72
2023/08/26 13:52:23;;;;;;;13.60;6.83;;;;;;;;;;4975975;29;20613;-72
2023/08/26 13:54:49;;;;;;;15.20;7.40;;;;;;;;;;4975498;29;20441;-72
2023/08/26 13:57:16;;;;;;;12.13;7.17;;;;;;;;;;4965964;28;20413;-72
2023/08/26 13:59:42;;;;;;;13.70;6.63;;;;;;;;;;4961989;28;20483;-72
2023/08/26 14:02:08;;;;;;;16.23;6.70;;;;;;;;;;4959747;29;20925;-72
2023/08/26 14:04:34;;;;;;;12.77;7.20;;;;;;;;;;4958732;29;20965;-73
2023/08/26 14:07:00;;;;;;;10.53;6.40;;;;;;;;;;4960306;29;20416;-72
2023/08/26 14:09:29;;;;;;;11.57;6.50;;;;;;;;;;4957666;29;20440;-71
2023/08/26 14:11:54;;;;;;;15.23;7.97;;;;;;;;;;4958615;29;20424;-72
2023/08/26 14:14:20;;;;;;;7.70;5.87;;;;;;;;;;4959250;29;20487;-71
2023/08/26 14:16:46;;;;;;;16.30;7.20;;;;;;;;;;4959359;29;20416;-72
2023/08/26 14:19:13;;;;;;;8.70;5.83;;;;;;;;;;4958447;29;20467;-71
2023/08/26 14:21:39;;;;;;;12.03;6.73;;;;;;;;;;4959022;29;20424;-71
2023/08/26 14:24:05;;;;;;;9.30;6.33;;;;;;;;;;4958989;29;20432;-72
2023/08/26 14:26:31;;;;;;;10.97;6.43;;;;;;;;;;4957847;29;20468;-71
2023/08/26 14:28:57;;;;;;;8.70;6.30;;;;;;;;;;4958029;29;20781;-71
2023/08/26 14:31:23;;;;;;;11.40;6.20;;;;;;;;;;4957870;29;20779;-71
2023/08/26 14:33:49;;;;;;;10.30;6.17;;;;;;;;;;4957640;28;20831;-71
2023/08/26 14:36:15;;;;;;;11.20;6.10;;;;;;;;;;4955828;29;20463;-71
2023/08/26 14:38:45;;;;;;;8.77;6.40;;;;;;;;;;4956920;29;20432;-71
2023/08/26 14:41:11;;;;;;;14.40;6.07;;;;;;;;;;4956706;28;20417;-71
2023/08/26 14:43:37;;;;;;;10.23;5.97;;;;;;;;;;4956962;29;20909;-71
2023/08/26 14:46:03;;;;;;;12.27;6.10;;;;;;;;;;4957185;29;20468;-71
2023/08/26 14:48:30;;;;;;;11.97;5.70;;;;;;;;;;4956765;29;20821;-71
2023/08/26 14:50:56;;;;;;;11.90;6.40;;;;;;;;;;4957145;29;20416;-71
2023/08/26 14:53:22;;;;;;;10.40;6.10;;;;;;;;;;4956499;29;20440;-71
2023/08/26 14:55:48;;;;;;;11.20;6.20;;;;;;;;;;4956658;29;20502;-71
2023/08/26 14:58:14;;;;;;;8.30;5.27;;;;;;;;;;4951623;29;20516;-71
2023/08/26 15:00:40;;;;;;;9.00;5.03;;;;;;;;;;4937405;29;20561;-71
2023/08/26 15:03:06;;;;;;;10.70;5.27;;;;;;;;;;4952258;29;20433;-72
2023/08/26 15:05:32;;;;;;;7.20;4.80;;;;;;;;;;4955253;29;20468;-72
2023/08/26 15:07:58;;;;;;;8.70;5.07;;;;;;;;;;4955563;28;20423;-73
2023/08/26 15:10:25;;;;;;;8.83;5.43;;;;;;;;;;4956490;29;20428;-71
2023/08/26 15:12:51;;;;;;;10.23;5.10;;;;;;;;;;4955462;28;20860;-71
2023/08/26 15:15:17;;;;;;;6.53;4.70;;;;;;;;;;4966017;28;20464;-71
2023/08/26 15:17:43;;;;;;;7.93;5.70;;;;;;;;;;4956527;28;20480;-71
2023/08/26 15:20:09;;;;;;;12.50;5.50;;;;;;;;;;4971244;28;20839;-72
2023/08/26 15:22:36;;;;;;;8.70;4.60;;;;;;;;;;4955811;28;20436;-71
2023/08/26 15:25:05;;;;;;;6.57;5.33;;;;;;;;;;4955798;29;20468;-70
2023/08/26 15:27:31;;;;;;;7.87;4.77;;;;;;;;;;4955607;29;20420;-71
2023/08/26 15:29:58;;;;;;;14.70;5.37;;;;;;;;;;4955575;29;20415;-71
2023/08/26 15:32:24;;;;;;;8.13;5.03;;;;;;;;;;4955471;29;20451;-70
2023/08/26 15:34:49;;;;;;;7.70;4.60;;;;;;;;;;4955603;28;20630;-71
2023/08/26 15:37:16;;;;;;;9.60;5.10;;;;;;;;;;4956088;28;20476;-71
2023/08/26 15:39:41;;;;;;;7.90;4.50;;;;;;;;;;4955649;28;20424;-71
2023/08/26 15:42:08;;;;;;;13.27;5.30;;;;;;;;;;4953766;29;20421;-70
2023/08/26 15:44:34;;;;;;;6.57;4.90;;;;;;;;;;4955156;28;20434;-70
2023/08/26 15:47:00;;;;;;;9.60;4.70;;;;;;;;;;4955443;28;20417;-72
2023/08/26 15:49:26;;;;;;;8.70;4.43;;;;;;;;;;4955087;28;20416;-71
2023/08/26 15:51:52;;;;;;;7.17;4.80;;;;;;;;;;4954773;28;20495;-72
2023/08/26 15:54:18;;;;;;;11.20;4.80;;;;;;;;;;4954774;28;20436;-72
2023/08/26 15:56:44;;;;;;;17.60;5.00;;;;;;;;;;4955613;28;20439;-71
2023/08/26 15:59:10;;;;;;;15.97;4.57;;;;;;;;;;4955816;28;20879;-73
2023/08/26 16:01:36;;;;;;;7.33;3.87;;;;;;;;;;4953355;29;20511;-72
2023/08/26 16:04:02;;;;;;;7.20;4.37;;;;;;;;;;4952627;29;20479;-73
2023/08/26 16:06:28;;;;;;;10.43;4.40;;;;;;;;;;4955639;29;20499;-74
2023/08/26 16:08:54;;;;;;;12.20;4.27;;;;;;;;;;4954593;29;20894;-73
2023/08/26 16:11:21;;;;;;;5.13;3.63;;;;;;;;;;4955436;29;20428;-71
2023/08/26 16:13:47;;;;;;;10.73;4.70;;;;;;;;;;4959521;28;20617;-72
2023/08/26 16:16:13;;;;;;;9.87;5.00;;;;;;;;;;4956589;29;20443;-72
2023/08/26 16:18:39;;;;;;;5.03;3.73;;;;;;;;;;4956957;29;20413;-74
2023/08/26 16:21:05;;;;;;;8.90;4.53;;;;;;;;;;4956460;28;20504;-75
2023/08/26 16:23:31;;;;;;;5.90;4.00;;;;;;;;;;4955736;29;20448;-72
2023/08/26 16:25:57;;;;;;;6.40;5.07;;;;;;;;;;4954706;29;20494;-73
2023/08/26 16:28:24;;;;;;;7.50;3.73;;;;;;;;;;4953069;29;20484;-72
2023/08/26 16:30:49;;;;;;;7.90;4.40;;;;;;;;;;4953998;28;20440;-72
2023/08/26 16:33:15;;;;;;;6.40;3.70;;;;;;;;;;4954141;29;20814;-73
2023/08/26 16:35:41;;;;;;;8.10;3.67;;;;;;;;;;4954090;29;20519;-72
2023/08/26 16:38:07;;;;;;;5.97;4.23;;;;;;;;;;4954065;29;20416;-72
2023/08/26 16:40:33;;;;;;;7.33;4.00;;;;;;;;;;4952650;29;20435;-72
2023/08/26 16:43:00;;;;;;;7.60;4.33;;;;;;;;;;4953155;29;20451;-72
2023/08/26 16:45:26;;;;;;;11.63;5.90;;;;;;;;;;4955437;29;20472;-72
2023/08/26 16:47:52;;;;;;;8.80;4.63;;;;;;;;;;4954662;29;20411;-72
2023/08/26 16:50:18;;;;;;;7.43;4.37;;;;;;;;;;4954174;29;20424;-72
2023/08/26 16:52:46;;;;;;;6.97;4.33;;;;;;;;;;4954193;29;20887;-73
2023/08/26 16:55:12;;;;;;;6.37;3.87;;;;;;;;;;4954131;28;20459;-72
2023/08/26 16:57:38;;;;;;;7.50;4.90;;;;;;;;;;4954414;29;20899;-72
2023/08/26 17:00:04;;;;;;;10.97;4.53;;;;;;;;;;4954032;29;20917;-72
2023/08/26 17:02:31;;;;;;;10.30;4.07;;;;;;;;;;4959362;29;20421;-72
2023/08/26 17:04:57;;;;;;;7.90;4.67;;;;;;;;;;4960480;28;20471;-72
2023/08/26 17:07:23;;;;;;;8.73;4.17;;;;;;;;;;4957007;29;20464;-73
2023/08/26 17:09:49;;;;;;;7.33;4.10;;;;;;;;;;4954952;29;20417;-74
2023/08/26 17:12:15;;;;;;;11.20;4.60;;;;;;;;;;4954398;29;20424;-73
2023/08/26 17:14:43;;;;;;;7.67;5.07;;;;;;;;;;4976654;23;20558;-73
2023/08/26 17:17:09;;;;;;;8.60;4.40;;;;;;;;;;4953810;28;20397;-72
2023/08/26 17:19:35;;;;;;;6.57;4.10;;;;;;;;;;4953382;29;20754;-72
2023/08/26 17:22:01;;;;;;;8.50;5.33;;;;;;;;;;4953454;29;20416;-74
2023/08/26 17:24:27;;;;;;;8.77;5.50;;;;;;;;;;4953254;29;20433;-73
2023/08/26 17:26:53;;;;;;;9.20;5.30;;;;;;;;;;4953677;29;20511;-73
2023/08/26 17:29:19;;;;;;;7.60;4.33;;;;;;;;;;4953230;29;20430;-73
2023/08/26 17:31:45;;;;;;;8.67;4.93;;;;;;;;;;4954656;28;20786;-72
2023/08/26 17:34:11;;;;;;;9.50;4.57;;;;;;;;;;4957382;29;20441;-72
2023/08/26 17:36:37;;;;;;;6.67;3.97;;;;;;;;;;4957302;29;20488;-73
2023/08/26 17:39:03;;;;;;;7.53;4.90;;;;;;;;;;4957055;29;20913;-72
2023/08/26 17:41:29;;;;;;;9.37;4.30;;;;;;;;;;4957440;29;20421;-71
2023/08/26 17:43:55;;;;;;;10.03;4.90;;;;;;;;;;4957414;29;20826;-74
2023/08/26 17:46:21;;;;;;;10.73;4.70;;;;;;;;;;4957072;29;20543;-72
2023/08/26 17:48:48;;;;;;;10.90;4.80;;;;;;;;;;4956563;29;20729;-72
2023/08/26 17:51:14;;;;;;;10.07;5.40;;;;;;;;;;4958956;29;20412;-74
2023/08/26 17:53:40;;;;;;;11.63;5.07;;;;;;;;;;4959708;29;20405;-73
2023/08/26 17:56:07;;;;;;;7.37;5.03;;;;;;;;;;4958917;29;20435;-73
2023/08/26 17:58:33;;;;;;;8.47;5.10;;;;;;;;;;4956432;29;20416;-71
2023/08/26 18:00:59;;;;;;;8.50;4.20;;;;;;;;;;4957314;29;20423;-73
2023/08/26 18:03:25;;;;;;;7.80;5.67;;;;;;;;;;4955298;29;20448;-71
2023/08/26 18:05:51;;;;;;;8.27;4.57;;;;;;;;;;4947909;28;20526;-72
2023/08/26 18:08:16;;;;;;;7.60;5.03;;;;;;;;;;4957456;28;20416;-71
2023/08/26 18:10:42;;;;;;;10.80;5.50;;;;;;;;;;4971329;28;20503;-72
2023/08/26 18:13:08;;;;;;;16.80;6.00;;;;;;;;;;4956310;28;20412;-72
2023/08/26 18:15:35;;;;;;;11.57;5.93;;;;;;;;;;4957405;28;20827;-72
2023/08/26 18:18:01;;;;;;;10.20;6.20;;;;;;;;;;4957103;28;20477;-72
2023/08/26 18:20:27;;;;;;;9.00;5.50;;;;;;;;;;4957284;29;20432;-74
2023/08/26 18:22:53;;;;;;;14.90;5.70;;;;;;;;;;4965217;29;20472;-72
2023/08/26 18:25:19;;;;;;;8.10;5.20;;;;;;;;;;4966554;29;20495;-73
2023/08/26 18:27:45;;;;;;;13.80;5.27;;;;;;;;;;4956665;29;20413;-74
2023/08/26 18:30:11;;;;;;;14.17;5.37;;;;;;;;;;4956298;29;20894;-73
2023/08/26 18:32:37;;;;;;;17.03;6.00;;;;;;;;;;4956602;29;20790;-73
2023/08/26 18:35:04;;;;;;;9.53;4.20;;;;;;;;;;4956556;29;20439;-73
2023/08/26 18:37:33;;;;;;;8.13;5.40;;;;;;;;;;4957025;29;20424;-72
2023/08/26 18:39:59;;;;;;;9.73;5.50;;;;;;;;;;4956574;29;20428;-73
2023/08/26 18:42:25;;;;;;;9.87;5.63;;;;;;;;;;4956310;28;20452;-74
2023/08/26 18:44:52;;;;;;;15.40;8.27;;;;;;;;;;4956642;29;20496;-73
2023/08/26 18:47:18;;;;;;;8.10;5.70;;;;;;;;;;4956973;29;20957;-72
2023/08/26 18:49:44;;;;;;;6.10;4.40;;;;;;;;;;4953056;29;20436;-72
2023/08/26 18:52:11;;;;;;;11.20;5.90;;;;;;;;;;4948195;29;20473;-73
2023/08/26 18:54:37;;;;;;;19.60;6.80;;;;;;;;;;4939643;29;20432;-73
2023/08/26 18:57:03;;;;;;;11.70;6.07;;;;;;;;;;4956442;29;20500;-73
2023/08/26 18:59:30;;;;;;;9.43;5.13;;;;;;;;;;4956716;29;20493;-73
2023/08/26 19:01:56;;;;;;;10.00;5.87;;;;;;;;;;4957588;28;20413;-73
2023/08/26 19:04:22;;;;;;;8.07;5.27;;;;;;;;;;4957370;28;20504;-73
2023/08/26 19:06:48;;;;;;;13.00;6.80;;;;;;;;;;4956811;28;20465;-73
2023/08/26 19:09:16;;;;;;;9.27;6.80;;;;;;;;;;4957079;29;20428;-73
2023/08/26 19:11:41;;;;;;;11.40;6.07;;;;;;;;;;4954704;29;20420;-73
2023/08/26 19:14:07;;;;;;;9.10;6.23;;;;;;;;;;4954559;29;20417;-73
2023/08/26 19:16:40;;;;;;;12.37;6.10;;;;;;;;;;4955915;28;20938;-73
2023/08/26 19:19:06;;;;;;;9.77;6.20;;;;;;;;;;4955950;28;20436;-72
2023/08/26 19:21:33;;;;;;;11.87;6.10;;;;;;;;;;4955305;28;20948;-71
2023/08/26 19:24:00;;;;;;;9.80;6.93;;;;;;;;;;4955980;28;20423;-72
2023/08/26 19:26:27;;;;;;;14.00;6.17;;;;;;;;;;4955780;28;20861;-72
2023/08/26 19:28:53;;;;;;;9.67;6.93;;;;;;;;;;4951599;28;20437;-73
2023/08/26 19:31:19;;;;;;;9.63;6.37;;;;;;;;;;4944663;29;20416;-73